createdAt,value
2019-01-31T00:00:44.801Z,98142.23
2019-01-31T00:04:18.483Z,98141.69
2019-01-31T00:07:52.224Z,98142.01
2019-01-31T00:11:31.820Z,98136.41
2019-01-31T00:14:50.653Z,98143.02
2019-01-31T00:18:46.112Z,98144.38
2019-01-31T00:22:37.989Z,98151.69
2019-01-31T00:26:22.334Z,98154.98
2019-01-31T00:29:59.339Z,98158.20
2019-01-31T00:33:19.105Z,98149.22
2019-01-31T00:36:47.817Z,98152.83
2019-01-31T00:40:23.930Z,98149.53
2019-01-31T00:44:21.582Z,98162.94
2019-01-31T00:48:00.435Z,98162.74
2019-01-31T00:51:37.700Z,98161.50
2019-01-31T00:55:21.160Z,98154.62
2019-01-31T00:59:04.468Z,98150.58
2019-01-31T01:02:44.729Z,98153.48
2019-01-31T01:06:23.475Z,98155.66
2019-01-31T01:09:59.204Z,98157.02
2019-01-31T01:13:52.096Z,98157.80
2019-01-31T01:17:16.615Z,98157.17
2019-01-31T01:20:41.894Z,98161.03
2019-01-31T01:24:02.676Z,98170.05
2019-01-31T01:27:42.926Z,98172.05
2019-01-31T01:31:41.860Z,98173.06
2019-01-31T01:35:34.450Z,98174.69
2019-01-31T01:39:19.255Z,98175.83
2019-01-31T01:42:42.107Z,98176.97
2019-01-31T01:46:26.426Z,98191.44
2019-01-31T01:50:02.392Z,98185.36
2019-01-31T01:53:59.093Z,98178.00
2019-01-31T01:57:35.295Z,98183.83
2019-01-31T02:01:25.294Z,98179.58
2019-01-31T02:05:09.560Z,98176.92
2019-01-31T02:09:04.658Z,98176.88
2019-01-31T02:12:42.159Z,98178.63
2019-01-31T02:16:23.485Z,98176.99
2019-01-31T02:20:18.745Z,98180.30
2019-01-31T02:23:43.660Z,98176.55
2019-01-31T02:27:13.413Z,98174.92
2019-01-31T02:31:02.383Z,98172.46
2019-01-31T02:34:48.267Z,98174.55
2019-01-31T02:38:07.915Z,98182.18
2019-01-31T02:41:29.231Z,98181.88
2019-01-31T02:45:02.444Z,98176.27
2019-01-31T02:48:18.132Z,98174.59
2019-01-31T02:51:49.793Z,98166.13
2019-01-31T02:55:39.319Z,98167.43
2019-01-31T02:59:18.467Z,98169.95
2019-01-31T03:02:40.599Z,98172.64
2019-01-31T03:06:14.120Z,98179.23
2019-01-31T03:10:03.906Z,98174.41
2019-01-31T03:13:35.821Z,98179.63
2019-01-31T03:17:17.157Z,98186.97
2019-01-31T03:20:42.983Z,98195.34
2019-01-31T03:24:30.428Z,98200.06
2019-01-31T03:28:32.503Z,98202.93
2019-01-31T03:32:03.916Z,98201.58
2019-01-31T03:35:36.332Z,98207.99
2019-01-31T03:39:26.905Z,98206.92
2019-01-31T03:43:19.051Z,98210.06
2019-01-31T03:47:08.328Z,98207.63
2019-01-31T03:51:03.487Z,98207.11
2019-01-31T03:54:53.798Z,98204.98
2019-01-31T03:58:27.428Z,98202.43
2019-01-31T04:01:49.152Z,98196.22
2019-01-31T04:05:34.916Z,98194.23
2019-01-31T04:08:40.886Z,98197.45
2019-01-31T04:11:46.946Z,98197.67
2019-01-31T04:14:52.802Z,98203.40
2019-01-31T04:17:58.709Z,98207.30
2019-01-31T04:21:04.651Z,98202.77
2019-01-31T04:24:10.729Z,98207.15
2019-01-31T04:27:16.607Z,98211.50
2019-01-31T04:30:22.667Z,98208.95
2019-01-31T04:33:28.622Z,98200.31
2019-01-31T04:36:34.570Z,98203.73
2019-01-31T04:39:40.432Z,98208.22
2019-01-31T04:42:46.395Z,98214.13
2019-01-31T04:45:52.257Z,98215.09
2019-01-31T04:48:58.266Z,98212.50
2019-01-31T04:52:05.312Z,98220.81
2019-01-31T04:55:11.372Z,98215.94
2019-01-31T04:58:17.216Z,98211.40
2019-01-31T05:01:23.062Z,98197.27
2019-01-31T05:04:28.913Z,98200.34
2019-01-31T05:07:34.769Z,98207.80
2019-01-31T05:10:43.327Z,98207.00
2019-01-31T05:13:48.258Z,98201.80
2019-01-31T05:16:54.089Z,98204.37
2019-01-31T05:19:59.983Z,98198.49
2019-01-31T05:23:06.019Z,98200.13
2019-01-31T05:26:11.922Z,98197.19
2019-01-31T05:29:17.837Z,98198.19
2019-01-31T05:32:23.736Z,98196.85
2019-01-31T05:35:29.777Z,98201.89
2019-01-31T05:38:35.630Z,98213.90
2019-01-31T05:41:41.613Z,98214.95
2019-01-31T05:44:47.676Z,98220.94
2019-01-31T05:47:53.502Z,98232.34
2019-01-31T05:50:59.370Z,98234.30
2019-01-31T05:54:05.535Z,98231.92
2019-01-31T05:57:11.474Z,98238.85
2019-01-31T06:00:22.599Z,98235.76
2019-01-31T06:03:28.482Z,98237.84
2019-01-31T06:06:34.358Z,98239.30
2019-01-31T06:09:40.198Z,98245.67
2019-01-31T06:12:46.182Z,98253.63
2019-01-31T06:15:52.013Z,98260.94
2019-01-31T06:18:57.895Z,98275.26
2019-01-31T06:22:03.861Z,98267.28
2019-01-31T06:25:09.923Z,98284.52
2019-01-31T06:28:15.783Z,98300.13
2019-01-31T06:31:21.640Z,98304.33
2019-01-31T06:34:27.492Z,98306.75
2019-01-31T06:37:33.350Z,98302.05
2019-01-31T06:40:39.284Z,98297.67
2019-01-31T06:43:45.136Z,98308.41
2019-01-31T06:46:51.027Z,98313.30
2019-01-31T06:49:56.879Z,98306.30
2019-01-31T06:53:02.778Z,98300.45
2019-01-31T06:56:08.732Z,98290.50
2019-01-31T06:59:14.744Z,98294.77
2019-01-31T07:02:20.618Z,98302.55
2019-01-31T07:05:26.445Z,98307.44
2019-01-31T07:08:32.279Z,98318.28
2019-01-31T07:11:38.239Z,98330.85
2019-01-31T07:14:44.096Z,98336.38
2019-01-31T07:17:50.236Z,98334.58
2019-01-31T07:20:56.196Z,98325.91
2019-01-31T07:24:02.172Z,98327.73
2019-01-31T07:27:07.994Z,98317.67
2019-01-31T07:30:14.950Z,98324.02
2019-01-31T07:33:20.808Z,98312.94
2019-01-31T07:36:26.790Z,98311.32
2019-01-31T07:39:32.734Z,98318.95
2019-01-31T07:42:38.604Z,98309.80
2019-01-31T07:45:44.719Z,98313.78
2019-01-31T07:48:50.645Z,98317.55
2019-01-31T07:51:56.501Z,98314.52
2019-01-31T07:55:02.419Z,98310.91
2019-01-31T07:58:08.345Z,98312.21
2019-01-31T08:01:14.417Z,98317.21
2019-01-31T08:04:20.270Z,98324.22
2019-01-31T08:07:28.746Z,98325.01
2019-01-31T08:10:37.948Z,98320.30
2019-01-31T08:13:43.783Z,98324.76
2019-01-31T08:16:49.658Z,98321.27
2019-01-31T08:19:55.511Z,98320.28
2019-01-31T08:23:01.569Z,98320.15
2019-01-31T08:26:08.555Z,98326.66
2019-01-31T08:29:14.589Z,98333.56
2019-01-31T08:32:20.558Z,98332.89
2019-01-31T08:35:26.512Z,98336.11
2019-01-31T08:38:32.364Z,98324.98
2019-01-31T08:41:38.316Z,98328.77
2019-01-31T08:44:44.274Z,98312.41
2019-01-31T08:47:50.306Z,98307.27
2019-01-31T08:50:56.327Z,98315.90
2019-01-31T08:54:02.209Z,98320.14
2019-01-31T08:57:08.224Z,98317.69
2019-01-31T09:00:22.730Z,98321.67
2019-01-31T09:03:28.712Z,98327.14
2019-01-31T09:06:34.679Z,98321.28
2019-01-31T09:09:41.658Z,98323.09
2019-01-31T09:12:47.655Z,98334.83
2019-01-31T09:15:53.513Z,98334.70
2019-01-31T09:18:59.293Z,98335.92
2019-01-31T09:22:14.589Z,98330.52
2019-01-31T09:25:52.555Z,98330.73
2019-01-31T09:29:31.732Z,98338.83
2019-01-31T09:33:28.853Z,98338.86
2019-01-31T09:37:18.334Z,98341.78
2019-01-31T09:40:54.175Z,98341.52
2019-01-31T09:44:48.574Z,98336.93
2019-01-31T09:48:34.543Z,98334.00
2019-01-31T09:52:17.759Z,98329.84
2019-01-31T09:55:57.307Z,98310.28
2019-01-31T09:59:49.678Z,98308.27
2019-01-31T10:03:34.707Z,98295.66
2019-01-31T10:07:26.031Z,98294.08
2019-01-31T10:11:14.522Z,98293.55
2019-01-31T10:14:53.081Z,98292.25
2019-01-31T10:18:24.626Z,98297.02
2019-01-31T10:22:18.852Z,98301.41
2019-01-31T10:26:11.139Z,98290.47
2019-01-31T10:30:05.452Z,98289.02
2019-01-31T10:33:42.434Z,98289.84
2019-01-31T10:37:34.431Z,98286.97
2019-01-31T10:41:12.954Z,98280.44
2019-01-31T10:44:53.063Z,98275.56
2019-01-31T10:48:44.178Z,98286.02
2019-01-31T10:52:38.998Z,98285.97
2019-01-31T10:56:19.726Z,98270.61
2019-01-31T11:00:21.241Z,98262.17
2019-01-31T11:04:15.425Z,98255.95
2019-01-31T11:08:02.248Z,98243.67
2019-01-31T11:11:24.684Z,98262.16
2019-01-31T11:15:01.519Z,98261.50
2019-01-31T11:18:48.815Z,98257.02
2019-01-31T11:22:40.093Z,98252.31
2019-01-31T11:26:35.598Z,98245.81
2019-01-31T11:30:18.028Z,98247.72
2019-01-31T11:34:14.702Z,98250.39
2019-01-31T11:37:41.821Z,98252.52
2019-01-31T11:41:31.384Z,98247.62
2019-01-31T11:45:26.981Z,98253.22
2019-01-31T11:49:09.395Z,98245.80
2019-01-31T11:53:01.314Z,98242.30
2019-01-31T11:56:28.243Z,98240.83
2019-01-31T11:59:34.051Z,98237.48
2019-01-31T12:02:39.990Z,98233.35
2019-01-31T12:05:45.927Z,98233.70
2019-01-31T12:08:51.725Z,98233.37
2019-01-31T12:11:57.665Z,98231.73
2019-01-31T12:15:03.673Z,98222.27
2019-01-31T12:18:10.318Z,98217.84
2019-01-31T12:21:16.259Z,98210.90
2019-01-31T12:24:22.171Z,98215.36
2019-01-31T12:27:28.082Z,98215.16
2019-01-31T12:30:33.957Z,98209.55
2019-01-31T12:33:39.785Z,98214.26
2019-01-31T12:36:45.785Z,98213.47
2019-01-31T12:39:52.186Z,98205.16
2019-01-31T12:42:58.263Z,98201.61
2019-01-31T12:46:04.358Z,98206.48
2019-01-31T12:49:10.324Z,98205.98
2019-01-31T12:52:16.251Z,98200.19
2019-01-31T12:55:22.203Z,98191.88
2019-01-31T12:58:33.750Z,98191.76
2019-01-31T13:01:35.992Z,98194.04
2019-01-31T13:04:41.998Z,98190.59
2019-01-31T13:07:48.119Z,98187.83
2019-01-31T13:10:54.056Z,98182.89
2019-01-31T13:13:59.957Z,98182.69
2019-01-31T13:17:07.260Z,98187.36
2019-01-31T13:20:19.184Z,98184.27
2019-01-31T13:23:25.282Z,98187.66
2019-01-31T13:26:31.168Z,98191.62
2019-01-31T13:29:37.017Z,98207.22
2019-01-31T13:32:43.003Z,98219.03
2019-01-31T13:35:49.573Z,98214.42
2019-01-31T13:38:55.916Z,98214.22
2019-01-31T13:42:01.840Z,98211.70
2019-01-31T13:45:09.153Z,98213.38
2019-01-31T13:48:16.620Z,98211.82
2019-01-31T13:51:22.394Z,98213.14
2019-01-31T13:54:28.690Z,98211.55
2019-01-31T13:57:34.589Z,98209.54
2019-01-31T14:00:40.571Z,98198.62
2019-01-31T14:03:46.422Z,98203.55
2019-01-31T14:06:52.529Z,98200.98
2019-01-31T14:09:58.388Z,98209.69
2019-01-31T14:13:04.383Z,98206.73
2019-01-31T14:16:10.456Z,98210.13
2019-01-31T14:19:16.432Z,98212.89
2019-01-31T14:22:22.377Z,98209.20
2019-01-31T14:25:28.453Z,98205.22
2019-01-31T14:28:34.580Z,98206.19
2019-01-31T14:31:40.520Z,98203.75
2019-01-31T14:34:46.407Z,98213.52
2019-01-31T14:37:52.373Z,98203.88
2019-01-31T14:40:58.313Z,98214.85
2019-01-31T14:44:04.595Z,98217.37
2019-01-31T14:47:10.482Z,98213.36
2019-01-31T14:50:20.356Z,98216.18
2019-01-31T14:53:26.337Z,98223.53
2019-01-31T14:56:32.189Z,98224.60
2019-01-31T14:59:38.084Z,98213.34
2019-01-31T15:02:43.954Z,98216.44
2019-01-31T15:05:49.836Z,98217.33
2019-01-31T15:08:55.760Z,98216.11
2019-01-31T15:12:01.787Z,98210.97
2019-01-31T15:15:08.819Z,98213.73
2019-01-31T15:18:14.918Z,98218.23
2019-01-31T15:21:20.944Z,98217.84
2019-01-31T15:24:27.488Z,98219.56
2019-01-31T15:27:33.477Z,98222.97
2019-01-31T15:30:39.563Z,98225.70
2019-01-31T15:33:45.401Z,98220.92
2019-01-31T15:36:51.395Z,98223.69
2019-01-31T15:39:59.449Z,98222.58
2019-01-31T15:43:05.481Z,98225.91
2019-01-31T15:46:11.509Z,98236.55
2019-01-31T15:49:18.685Z,98239.80
2019-01-31T15:52:24.670Z,98239.78
2019-01-31T15:55:30.808Z,98235.05
2019-01-31T15:58:36.896Z,98231.25
2019-01-31T16:01:42.754Z,98233.76
2019-01-31T16:04:48.779Z,98233.97
2019-01-31T16:07:54.750Z,98238.38
2019-01-31T16:11:00.766Z,98240.50
2019-01-31T16:14:07.006Z,98238.12
2019-01-31T16:17:13.108Z,98245.34
2019-01-31T16:20:19.107Z,98246.15
2019-01-31T16:23:25.236Z,98254.36
2019-01-31T16:26:31.244Z,98252.65
2019-01-31T16:29:37.104Z,98253.80
2019-01-31T16:32:43.060Z,98258.76
2019-01-31T16:35:49.726Z,98260.88
2019-01-31T16:38:55.686Z,98269.66
2019-01-31T16:42:01.665Z,98273.31
2019-01-31T16:45:09.698Z,98276.56
2019-01-31T16:48:15.702Z,98273.52
2019-01-31T16:51:21.676Z,98278.24
2019-01-31T16:54:27.648Z,98284.07
2019-01-31T16:57:33.626Z,98291.40
2019-01-31T17:00:39.683Z,98297.57
2019-01-31T17:03:45.650Z,98297.68
2019-01-31T17:06:51.607Z,98314.20
2019-01-31T17:09:57.814Z,98313.84
2019-01-31T17:13:04.319Z,98315.27
2019-01-31T17:16:11.183Z,98330.39
2019-01-31T17:19:17.283Z,98332.02
2019-01-31T17:22:23.284Z,98328.59
2019-01-31T17:25:29.343Z,98331.69
2019-01-31T17:28:35.303Z,98338.45
2019-01-31T17:31:41.411Z,98349.59
2019-01-31T17:34:47.272Z,98345.98
2019-01-31T17:37:53.241Z,98351.86
2019-01-31T17:40:59.196Z,98358.55
2019-01-31T17:44:05.346Z,98355.61
2019-01-31T17:47:11.330Z,98358.72
2019-01-31T17:50:17.697Z,98361.67
2019-01-31T17:53:23.573Z,98361.02
2019-01-31T17:56:29.444Z,98368.66
2019-01-31T17:59:35.382Z,98369.64
2019-01-31T18:02:45.501Z,98380.39
2019-01-31T18:05:49.049Z,98387.42
2019-01-31T18:08:54.874Z,98393.95
2019-01-31T18:12:00.744Z,98404.20
2019-01-31T18:15:07.695Z,98418.19
2019-01-31T18:18:13.726Z,98421.42
2019-01-31T18:21:19.659Z,98434.93
2019-01-31T18:24:25.498Z,98434.58
2019-01-31T18:27:31.355Z,98438.83
2019-01-31T18:30:37.412Z,98447.08
2019-01-31T18:33:43.233Z,98460.22
2019-01-31T18:36:49.214Z,98462.36
2019-01-31T18:39:55.092Z,98466.58
2019-01-31T18:43:00.945Z,98464.92
2019-01-31T18:46:07.129Z,98474.34
2019-01-31T18:49:15.025Z,98485.54
2019-01-31T18:52:20.968Z,98486.27
2019-01-31T18:55:27.727Z,98497.77
2019-01-31T18:58:33.574Z,98492.38
2019-01-31T19:01:43.573Z,98499.52
2019-01-31T19:04:49.524Z,98514.67
2019-01-31T19:07:55.864Z,98518.58
2019-01-31T19:11:02.064Z,98524.88
2019-01-31T19:14:08.053Z,98524.38
2019-01-31T19:17:13.988Z,98531.05
2019-01-31T19:20:27.831Z,98541.58
2019-01-31T19:23:33.794Z,98541.71
2019-01-31T19:26:39.658Z,98549.47
2019-01-31T19:29:49.444Z,98545.22
2019-01-31T19:32:55.515Z,98560.76
2019-01-31T19:36:01.347Z,98562.73
2019-01-31T19:39:17.843Z,98568.92
2019-01-31T19:42:25.556Z,98579.66
2019-01-31T19:45:43.243Z,98584.86
2019-01-31T19:48:57.171Z,98587.77
2019-01-31T19:52:03.856Z,98598.20
2019-01-31T19:55:11.722Z,98604.84
2019-01-31T19:58:17.574Z,98606.92
2019-01-31T20:01:23.437Z,98616.30
2019-01-31T20:04:30.479Z,98623.65
2019-01-31T20:07:36.546Z,98625.22
2019-01-31T20:10:42.607Z,98630.20
2019-01-31T20:13:48.665Z,98638.65
2019-01-31T20:16:54.658Z,98635.59
2019-01-31T20:20:00.544Z,98650.83
2019-01-31T20:23:07.394Z,98648.17
2019-01-31T20:26:13.361Z,98644.42
2019-01-31T20:29:19.430Z,98653.26
2019-01-31T20:32:25.309Z,98654.44
2019-01-31T20:35:31.763Z,98654.16
2019-01-31T20:38:38.048Z,98657.67
2019-01-31T20:41:53.851Z,98664.34
2019-01-31T20:44:52.808Z,98665.36
2019-01-31T20:47:58.961Z,98664.97
2019-01-31T20:51:06.005Z,98671.59
2019-01-31T20:54:12.038Z,98677.56
2019-01-31T20:57:17.957Z,98684.75
2019-01-31T21:00:28.066Z,98684.25
2019-01-31T21:03:34.021Z,98684.92
2019-01-31T21:06:41.373Z,98694.69
2019-01-31T21:09:47.747Z,98693.52
2019-01-31T21:12:53.889Z,98686.53
2019-01-31T21:15:59.852Z,98694.89
2019-01-31T21:19:06.398Z,98700.63
2019-01-31T21:22:12.303Z,98708.71
2019-01-31T21:25:18.733Z,98701.98
2019-01-31T21:28:24.544Z,98710.34
2019-01-31T21:31:31.630Z,98705.89
2019-01-31T21:34:38.817Z,98712.59
2019-01-31T21:37:45.121Z,98714.52
2019-01-31T21:40:51.066Z,98723.79
2019-01-31T21:43:56.995Z,98726.98
2019-01-31T21:47:03.605Z,98729.66
2019-01-31T21:50:12.007Z,98734.39
2019-01-31T21:53:18.011Z,98741.91
2019-01-31T21:56:23.969Z,98744.77
2019-01-31T21:59:29.925Z,98758.45
2019-01-31T22:02:36.029Z,98763.30
2019-01-31T22:05:42.011Z,98762.83
2019-01-31T22:08:47.977Z,98772.27
2019-01-31T22:11:53.804Z,98778.75
2019-01-31T22:14:59.648Z,98790.91
2019-01-31T22:18:07.320Z,98790.44
2019-01-31T22:21:13.269Z,98791.17
2019-01-31T22:24:19.297Z,98800.57
2019-01-31T22:27:25.156Z,98793.25
2019-01-31T22:30:36.559Z,98804.99
2019-01-31T22:33:42.426Z,98796.06
2019-01-31T22:36:48.385Z,98806.56
2019-01-31T22:39:55.389Z,98807.67
2019-01-31T22:43:01.548Z,98814.66
2019-01-31T22:46:07.516Z,98819.91
2019-01-31T22:49:13.341Z,98820.34
2019-01-31T22:52:19.382Z,98828.13
2019-01-31T22:55:26.422Z,98830.13
2019-01-31T22:58:32.649Z,98841.39
2019-01-31T23:01:44.865Z,98845.17
2019-01-31T23:04:50.793Z,98845.84
2019-01-31T23:07:56.843Z,98844.40
2019-01-31T23:11:02.748Z,98841.29
2019-01-31T23:14:08.827Z,98850.37
2019-01-31T23:17:14.808Z,98857.16
2019-01-31T23:20:20.650Z,98859.27
2019-01-31T23:23:26.606Z,98865.75
2019-01-31T23:26:32.706Z,98864.10
2019-01-31T23:29:38.565Z,98867.33
2019-01-31T23:32:44.614Z,98883.20
2019-01-31T23:35:50.567Z,98879.63
2019-01-31T23:38:57.497Z,98881.03
2019-01-31T23:42:03.529Z,98883.69
2019-01-31T23:45:12.061Z,98890.47
2019-01-31T23:48:18.019Z,98898.98
2019-01-31T23:51:24.061Z,98898.11
2019-01-31T23:54:29.899Z,98902.22
2019-01-31T23:57:35.927Z,98898.09
